Time;durP1;ratioP1;P1;durP2;ratioP2;P2;SDS_P1;SDS_P2;PMS_P1;PMS_P2;Temp;Humidity;BMP_temperature;BMP_pressure;BME280_temperature;BME280_humidity;BME280_pressure;Samples;Min_cycle;Max_cycle;Signal;HPM_P1;HPM_P2
2022/08/20 00:01:43;;;;;;;;;;;;;;;-142.75;100.00;76304.56;5053167;28;19920;-68
2022/08/20 00:04:08;;;;;;;;;;;;;;;-142.75;100.00;76306.53;5053121;28;19917;-68
2022/08/20 00:06:33;;;;;;;;;;;;;;;-142.75;100.00;76318.34;5051997;28;19917;-68
2022/08/20 00:08:59;;;;;;;;;;;;;;;-142.75;100.00;76318.34;5034590;28;19993;-67
2022/08/20 00:11:25;;;;;;;;;;;;;;;-142.75;100.00;76322.28;5034683;28;19913;-67
2022/08/20 00:13:53;;;;;;;;;;;;;;;-142.75;100.00;76322.28;5052359;28;19912;-66
2022/08/20 00:16:20;;;;;;;;;;;;;;;-142.75;100.00;76318.34;5052386;28;20015;-68
2022/08/20 00:18:45;;;;;;;;;;;;;;;-142.75;100.00;76316.38;5034245;28;19913;-67
2022/08/20 00:21:12;;;;;;;;;;;;;;;-142.75;100.00;76322.28;5034389;28;20012;-67
2022/08/20 00:23:38;;;;;;;;;;;;;;;-142.75;100.00;76314.41;5034522;28;19917;-67
2022/08/20 00:26:04;;;;;;;;;;;;;;;-142.75;100.00;76324.25;5052062;28;19917;-66
2022/08/20 00:28:29;;;;;;;;;;;;;;;-142.75;100.00;76340.00;5033989;28;20025;-67
2022/08/20 00:30:55;;;;;;;;;;;;;;;-142.75;100.00;76340.00;5066308;23;20355;-67
2022/08/20 00:33:21;;;;;;;;;;;;;;;-142.75;100.00;76334.09;5095265;28;19928;-66
2022/08/20 00:35:48;;;;;;;;;;;;;;;-142.75;100.00;76332.13;5095825;28;20409;-67
2022/08/20 00:38:13;;;;;;;;;;;;;;;-142.75;100.00;76340.00;5096687;28;19919;-66
2022/08/20 00:40:42;;;;;;;;;;;;;;;-142.75;100.00;76341.97;5089895;28;19917;-65
2022/08/20 00:43:23;;;;;;;;;;;;;;;-142.75;100.00;76340.00;5074483;28;19980;-66
2022/08/20 00:45:49;;;;;;;;;;;;;;;-142.75;100.00;76340.00;5077509;28;20408;-65
2022/08/20 00:48:15;;;;;;;;;;;;;;;-142.75;100.00;76341.97;5077848;28;19916;-65
2022/08/20 00:50:40;;;;;;;;;;;;;;;-142.75;100.00;76349.81;5077225;28;20332;-65
2022/08/20 00:53:07;;;;;;;;;;;;;;;-142.75;100.00;76343.94;5077185;28;20375;-65
2022/08/20 00:55:33;;;;;;;;;;;;;;;-142.75;100.00;76345.91;5076642;28;20503;-65
2022/08/20 00:58:00;;;;;;;;;;;;;;;-142.75;100.00;76349.81;5077208;28;19913;-65
2022/08/20 01:00:30;;;;;;;;;;;;;;;-142.75;100.00;76359.66;5076155;28;20029;-65
2022/08/20 01:02:56;;;;;;;;;;;;;;;-142.75;100.00;76369.50;5075715;28;19913;-65
2022/08/20 01:05:22;;;;;;;;;;;;;;;-142.75;100.00;76377.38;5076098;28;19919;-65
2022/08/20 01:07:49;;;;;;;;;;;;;;;-142.75;100.00;76379.34;5074251;28;19916;-65
2022/08/20 01:10:16;;;;;;;;;;;;;;;-142.75;100.00;76383.28;5076100;28;19912;-65
2022/08/20 01:12:43;;;;;;;;;;;;;;;-142.75;100.00;76391.16;5074094;28;19942;-65
2022/08/20 01:15:12;;;;;;;;;;;;;;;-142.75;100.00;76401.00;5075755;28;20451;-65
2022/08/20 01:17:40;;;;;;;;;;;;;;;-142.75;100.00;76395.09;5075969;28;19920;-66
2022/08/20 01:20:17;;;;;;;;;;;;;;;-142.75;100.00;76391.16;5075776;28;20046;-65
2022/08/20 01:25:52;;;;;;;;;;;;;;;-142.75;100.00;76412.81;5075803;28;19958;-65
2022/08/20 01:28:21;;;;;;;;;;;;;;;-142.75;100.00;76420.69;5075509;28;19919;-65
2022/08/20 01:30:46;;;;;;;;;;;;;;;-142.75;100.00;76438.41;5075312;28;19924;-65
2022/08/20 01:33:12;;;;;;;;;;;;;;;-142.75;100.00;76436.44;5076202;28;19917;-65
2022/08/20 01:35:38;;;;;;;;;;;;;;;-142.75;100.00;76448.25;5075967;28;19936;-65
2022/08/20 01:38:04;;;;;;;;;;;;;;;-142.75;100.00;76436.44;5075461;28;19966;-65
2022/08/20 01:40:48;;;;;;;;;;;;;;;-142.75;100.00;76432.50;5075491;28;19978;-65
2022/08/20 01:43:13;;;;;;;;;;;;;;;-142.75;100.00;76438.41;5075830;28;19912;-65
2022/08/20 01:45:39;;;;;;;;;;;;;;;-142.75;100.00;76436.44;5075751;28;19912;-66
2022/08/20 01:48:04;;;;;;;;;;;;;;;-142.75;100.00;76438.41;5075672;28;19912;-65
2022/08/20 01:50:31;;;;;;;;;;;;;;;-142.75;100.00;76452.19;5076119;28;19912;-65
2022/08/20 01:53:08;;;;;;;;;;;;;;;-142.75;100.00;76452.19;5075442;28;19944;-65
2022/08/20 01:55:33;;;;;;;;;;;;;;;-142.75;100.00;76456.13;5075793;28;19917;-65
2022/08/20 01:57:59;;;;;;;;;;;;;;;-142.75;100.00;76471.88;5075610;28;20431;-65
2022/08/20 02:00:24;;;;;;;;;;;;;;;-142.75;100.00;76464.00;5075679;28;19916;-64
2022/08/20 02:02:50;;;;;;;;;;;;;;;-142.75;100.00;76479.75;5075708;28;19948;-65
2022/08/20 02:05:16;;;;;;;;;;;;;;;-142.75;100.00;76487.63;5075698;28;20400;-65
2022/08/20 02:07:41;;;;;;;;;;;;;;;-142.75;100.00;76507.31;5075096;28;20014;-65
2022/08/20 02:10:07;;;;;;;;;;;;;;;-142.75;100.00;76519.13;5075443;28;19913;-65
2022/08/20 02:12:34;;;;;;;;;;;;;;;-142.75;100.00;76521.09;5075299;28;19916;-65
2022/08/20 02:15:00;;;;;;;;;;;;;;;-142.75;100.00;76534.84;5075406;28;20002;-65
2022/08/20 02:17:26;;;;;;;;;;;;;;;-142.75;100.00;76542.72;5076259;28;19920;-65
2022/08/20 02:19:53;;;;;;;;;;;;;;;-142.75;100.00;76554.53;5079015;28;19916;-65
2022/08/20 02:22:28;;;;;;;;;;;;;;;-142.75;100.00;76566.34;5077287;28;19974;-65
2022/08/20 02:24:53;;;;;;;;;;;;;;;-142.75;100.00;76552.56;5078698;28;20317;-65
2022/08/20 02:27:22;;;;;;;;;;;;;;;-142.75;100.00;76544.69;5078367;28;19912;-65
2022/08/20 02:29:47;;;;;;;;;;;;;;;-142.75;100.00;76542.72;5078721;28;19951;-65
2022/08/20 02:32:12;;;;;;;;;;;;;;;-142.75;100.00;76536.84;5078482;28;19931;-65
2022/08/20 02:34:37;;;;;;;;;;;;;;;-142.75;100.00;76544.69;5078744;28;19913;-65
2022/08/20 02:37:04;;;;;;;;;;;;;;;-142.75;100.00;76542.72;5076627;28;20366;-65
2022/08/20 02:39:29;;;;;;;;;;;;;;;-142.75;100.00;76538.78;5078532;28;19917;-65
2022/08/20 02:41:54;;;;;;;;;;;;;;;-142.75;100.00;76530.91;5078573;28;19919;-65
2022/08/20 02:44:20;;;;;;;;;;;;;;;-142.75;100.00;76538.78;5077400;28;19959;-65
2022/08/20 02:46:47;;;;;;;;;;;;;;;-142.75;100.00;76540.75;5078618;28;19958;-65
2022/08/20 02:49:13;;;;;;;;;;;;;;;-142.75;100.00;76546.66;5078730;28;19947;-66
2022/08/20 02:51:38;;;;;;;;;;;;;;;-142.75;100.00;76560.44;5078693;28;19919;-65
2022/08/20 02:54:03;;;;;;;;;;;;;;;-142.75;100.00;76578.16;5079055;28;19912;-65
2022/08/20 02:56:28;;;;;;;;;;;;;;;-142.75;100.00;76584.06;5079229;28;19913;-65
2022/08/20 02:58:53;;;;;;;;;;;;;;;-142.75;100.00;76582.09;5078415;28;19912;-65
2022/08/20 03:01:19;;;;;;;;;;;;;;;-142.75;100.00;76597.84;5078959;28;19959;-67
2022/08/20 03:03:44;;;;;;;;;;;;;;;-142.75;100.00;76593.91;5078426;28;19939;-65
2022/08/20 03:06:10;;;;;;;;;;;;;;;-142.75;100.00;76578.16;5078563;28;19984;-65
2022/08/20 03:08:36;;;;;;;;;;;;;;;-142.75;100.00;76578.16;5078252;28;19912;-65
2022/08/20 03:11:02;;;;;;;;;;;;;;;-142.75;100.00;76560.44;5078241;28;20361;-66
2022/08/20 03:13:27;;;;;;;;;;;;;;;-142.75;100.00;76560.44;5078562;28;19916;-65
2022/08/20 03:15:54;;;;;;;;;;;;;;;-142.75;100.00;76554.53;5078292;28;19916;-64
2022/08/20 03:18:19;;;;;;;;;;;;;;;-142.75;100.00;76558.47;5079178;28;19919;-65
2022/08/20 03:20:45;;;;;;;;;;;;;;;-142.75;100.00;76568.31;5079545;28;20293;-65
2022/08/20 03:23:11;;;;;;;;;;;;;;;-142.75;100.00;76558.47;5077881;28;19917;-65
2022/08/20 03:25:36;;;;;;;;;;;;;;;-142.75;100.00;76558.47;5078785;28;19942;-65
2022/08/20 03:28:01;;;;;;;;;;;;;;;-142.75;100.00;76562.41;5078071;28;19916;-64
2022/08/20 03:30:27;;;;;;;;;;;;;;;-142.75;100.00;76552.56;5077561;28;20014;-65
2022/08/20 03:32:53;;;;;;;;;;;;;;;-142.75;100.00;76556.50;5078204;28;19955;-65
2022/08/20 03:35:19;;;;;;;;;;;;;;;-142.75;100.00;76560.44;5078144;28;20324;-65
2022/08/20 03:37:45;;;;;;;;;;;;;;;-142.75;100.00;76564.38;5077898;28;19916;-65
2022/08/20 03:40:14;;;;;;;;;;;;;;;-142.75;100.00;76570.28;5077809;28;20017;-65
2022/08/20 03:42:40;;;;;;;;;;;;;;;-142.75;100.00;76576.19;5078094;28;19913;-65
2022/08/20 03:45:06;;;;;;;;;;;;;;;-142.75;100.00;76599.81;5078004;28;19919;-65
2022/08/20 03:47:32;;;;;;;;;;;;;;;-142.75;100.00;76605.72;5078002;28;19959;-65
2022/08/20 03:49:58;;;;;;;;;;;;;;;-142.75;100.00;76609.66;5077569;28;20345;-65
2022/08/20 03:52:23;;;;;;;;;;;;;;;-142.75;100.00;76617.53;5077866;28;19983;-65
2022/08/20 03:54:48;;;;;;;;;;;;;;;-142.75;100.00;76611.63;5076453;28;19948;-65
2022/08/20 03:57:14;;;;;;;;;;;;;;;-142.75;100.00;76613.59;5077222;28;19935;-65
2022/08/20 03:59:40;;;;;;;;;;;;;;;-142.75;100.00;76599.81;5077207;28;19917;-65
2022/08/20 04:02:05;;;;;;;;;;;;;;;-142.75;100.00;76605.72;5077798;28;20404;-65
2022/08/20 04:04:30;;;;;;;;;;;;;;;-142.75;100.00;76613.59;5075894;28;19939;-65
2022/08/20 04:06:56;;;;;;;;;;;;;;;-142.75;100.00;76613.59;5076811;28;19916;-65
2022/08/20 04:09:21;;;;;;;;;;;;;;;-142.75;100.00;76623.44;5077444;28;20469;-65
2022/08/20 04:11:46;;;;;;;;;;;;;;;-142.75;100.00;76625.41;5077531;28;20007;-65
2022/08/20 04:14:11;;;;;;;;;;;;;;;-142.75;100.00;76633.28;5077826;28;20389;-65
2022/08/20 04:16:39;;;;;;;;;;;;;;;-142.75;100.00;76641.16;5077533;28;19912;-64
2022/08/20 04:19:05;;;;;;;;;;;;;;;-142.75;100.00;76645.09;5076849;28;19913;-67
2022/08/20 04:21:30;;;;;;;;;;;;;;;-142.75;100.00;76652.97;5076971;28;19913;-64
2022/08/20 04:23:55;;;;;;;;;;;;;;;-142.75;100.00;76654.94;5076887;28;19912;-65
2022/08/20 04:26:21;;;;;;;;;;;;;;;-142.75;100.00;76664.78;5077393;28;19912;-65
2022/08/20 04:28:46;;;;;;;;;;;;;;;-142.75;100.00;76664.78;5077891;28;19916;-65
2022/08/20 04:31:13;;;;;;;;;;;;;;;-142.75;100.00;76666.75;5077517;28;19927;-65
2022/08/20 04:33:38;;;;;;;;;;;;;;;-142.75;100.00;76680.53;5077377;28;19984;-65
2022/08/20 04:36:04;;;;;;;;;;;;;;;-142.75;100.00;76690.38;5075849;28;20390;-65
2022/08/20 04:38:29;;;;;;;;;;;;;;;-142.75;100.00;76704.16;5074484;28;20271;-64
2022/08/20 04:40:59;;;;;;;;;;;;;;;-142.75;100.00;76706.13;5073052;28;19928;-64
2022/08/20 04:43:26;;;;;;;;;;;;;;;-142.75;100.00;76717.94;5071722;28;19912;-65
2022/08/20 04:45:52;;;;;;;;;;;;;;;-142.75;100.00;76729.75;5068466;28;19912;-65
2022/08/20 04:48:18;;;;;;;;;;;;;;;-142.75;100.00;76753.38;5073182;28;19918;-65
2022/08/20 04:50:44;;;;;;;;;;;;;;;-142.75;100.00;76763.22;5071329;28;19913;-65
2022/08/20 04:53:10;;;;;;;;;;;;;;;-142.75;100.00;76763.22;5073932;28;20382;-65
2022/08/20 04:55:41;;;;;;;;;;;;;;;-142.75;100.00;76763.22;5077026;28;19912;-66
2022/08/20 04:58:11;;;;;;;;;;;;;;;-142.75;100.00;76755.34;5077233;28;19912;-66
2022/08/20 05:00:37;;;;;;;;;;;;;;;-142.75;100.00;76755.34;5076630;28;20051;-65
2022/08/20 05:03:02;;;;;;;;;;;;;;;-142.75;100.00;76755.34;5075947;28;20442;-66
2022/08/20 05:05:29;;;;;;;;;;;;;;;-142.75;100.00;76755.34;5076942;28;19916;-65
2022/08/20 05:07:54;;;;;;;;;;;;;;;-142.75;100.00;76751.41;5077462;28;20387;-66
2022/08/20 05:10:22;;;;;;;;;;;;;;;-142.75;100.00;76747.47;5077539;28;19920;-65
2022/08/20 05:12:48;;;;;;;;;;;;;;;-142.75;100.00;76751.41;5076097;28;20313;-65
2022/08/20 05:15:13;;;;;;;;;;;;;;;-142.75;100.00;76759.28;5075151;28;19919;-65
2022/08/20 05:17:39;;;;;;;;;;;;;;;-142.75;100.00;76763.22;5075084;28;19912;-65
2022/08/20 05:20:06;;;;;;;;;;;;;;;-142.75;100.00;76743.53;5075222;28;19916;-65
2022/08/20 05:22:31;;;;;;;;;;;;;;;-142.75;100.00;76739.59;5076763;28;19913;-65
2022/08/20 05:24:58;;;;;;;;;;;;;;;-142.75;100.00;76735.66;5077450;28;19939;-66
2022/08/20 05:27:25;;;;;;;;;;;;;;;-142.75;100.00;76731.72;5075693;28;19916;-65
2022/08/20 05:29:52;;;;;;;;;;;;;;;-142.75;100.00;76735.66;5077657;28;19913;-65
2022/08/20 05:32:17;;;;;;;;;;;;;;;-142.75;100.00;76739.59;5076018;28;20376;-65
2022/08/20 05:34:42;;;;;;;;;;;;;;;-142.75;100.00;76725.81;5075507;28;19921;-65
2022/08/20 05:37:08;;;;;;;;;;;;;;;-142.75;100.00;76710.06;5077451;28;19918;-65
2022/08/20 05:39:33;;;;;;;;;;;;;;;-142.75;100.00;76692.34;5075881;28;19967;-65
2022/08/20 05:41:59;;;;;;;;;;;;;;;-142.75;100.00;76676.59;5076822;28;20011;-65
2022/08/20 05:44:24;;;;;;;;;;;;;;;-142.75;100.00;76664.78;5075561;28;19919;-65
2022/08/20 05:46:50;;;;;;;;;;;;;;;-142.75;100.00;76647.06;5077016;28;19935;-65
2022/08/20 05:49:17;;;;;;;;;;;;;;;-142.75;100.00;76643.13;5077363;28;19913;-65
2022/08/20 05:51:43;;;;;;;;;;;;;;;-142.75;100.00;76625.41;5077311;28;20468;-65
2022/08/20 05:54:08;;;;;;;;;;;;;;;-142.75;100.00;76629.34;5079306;28;19951;-65
2022/08/20 05:56:34;;;;;;;;;;;;;;;-142.75;100.00;76591.94;5080907;28;20325;-66
2022/08/20 05:59:03;;;;;;;;;;;;;;;-142.75;100.00;76574.22;5079437;28;19970;-65
2022/08/20 06:01:29;;;;;;;;;;;;;;;-142.75;100.00;76558.47;5081079;28;19917;-65
2022/08/20 06:06:38;;;;;;;;;;;;;;;-142.75;100.00;76546.66;5080246;28;19959;-66
2022/08/20 06:09:04;;;;;;;;;;;;;;;-142.75;100.00;76538.78;5079859;28;19913;-65
2022/08/20 06:11:30;;;;;;;;;;;;;;;-142.75;100.00;76519.13;5079318;28;20012;-65
2022/08/20 06:13:55;;;;;;;;;;;;;;;-142.75;100.00;76483.69;5079516;28;20286;-65
2022/08/20 06:16:21;;;;;;;;;;;;;;;-142.75;100.00;76456.13;5079466;28;19912;-65
2022/08/20 06:18:46;;;;;;;;;;;;;;;-142.75;100.00;76442.34;5077914;28;19912;-65
2022/08/20 06:21:11;;;;;;;;;;;;;;;-142.75;100.00;76422.66;5079285;28;20006;-65
2022/08/20 06:23:36;;;;;;;;;;;;;;;-142.75;100.00;76399.03;5077788;28;19924;-65
2022/08/20 06:26:02;;;;;;;;;;;;;;;-142.75;100.00;76383.28;5078368;28;20340;-65
2022/08/20 06:28:27;;;;;;;;;;;;;;;-142.75;100.00;76345.91;5079363;28;20275;-65
2022/08/20 06:33:20;;;;;;;;;;;;;;;-142.75;100.00;76304.56;5049709;28;19932;-67
2022/08/20 06:35:46;;;;;;;;;;;;;;;-142.75;100.00;76271.09;5053431;28;19917;-67
2022/08/20 06:38:11;;;;;;;;;;;;;;;-142.75;100.00;76261.25;5054498;28;20374;-67
2022/08/20 06:40:37;;;;;;;;;;;;;;;-142.75;100.00;76253.38;5054639;28;20007;-66
2022/08/20 06:43:02;;;;;;;;;;;;;;;-142.75;100.00;76243.53;5053669;28;20380;-67
2022/08/20 06:45:29;;;;;;;;;;;;;;;-142.75;100.00;76223.84;5054593;28;19913;-66
2022/08/20 06:47:56;;;;;;;;;;;;;;;-142.75;100.00;76192.38;5054272;28;19916;-68
2022/08/20 06:50:23;;;;;;;;;;;;;;;-142.75;100.00;76188.44;5054566;28;19920;-68
2022/08/20 06:52:48;;;;;;;;;;;;;;;-142.75;100.00;76172.69;5054431;28;19913;-67
2022/08/20 06:55:14;;;;;;;;;;;;;;;-142.75;100.00;76188.44;5054543;28;20343;-69
2022/08/20 06:57:40;;;;;;;;;;;;;;;-142.75;100.00;76176.63;5054029;28;19913;-69
2022/08/20 07:00:07;;;;;;;;;;;;;;;-142.75;100.00;76145.13;5054167;28;20317;-68
2022/08/20 07:02:34;;;;;;;;;;;;;;;-142.75;100.00;76141.19;5052960;28;19967;-67
2022/08/20 07:04:59;;;;;;;;;;;;;;;-142.75;100.00;76111.66;5054030;28;19913;-68
2022/08/20 07:07:25;;;;;;;;;;;;;;;-142.75;100.00;76103.78;5053976;28;19920;-72
2022/08/20 07:09:57;;;;;;;;;;;;;;;-142.75;100.00;76099.84;5054258;28;19920;-66
2022/08/20 07:12:22;;;;;;;;;;;;;;;-142.75;100.00;76082.13;5053543;28;19913;-68
2022/08/20 07:14:47;;;;;;;;;;;;;;;-142.75;100.00;76058.53;5047693;28;19923;-69
2022/08/20 07:17:12;;;;;;;;;;;;;;;-142.75;100.00;76040.81;5040202;28;20441;-68
2022/08/20 07:19:37;;;;;;;;;;;;;;;-142.75;100.00;76030.97;5039858;28;19921;-68
2022/08/20 07:22:03;;;;;;;;;;;;;;;-142.75;100.00;76001.44;5038409;28;19917;-69
2022/08/20 07:24:29;;;;;;;;;;;;;;;-142.75;100.00;75971.91;5040110;28;19912;-68
2022/08/20 07:26:54;;;;;;;;;;;;;;;-142.75;100.00;75981.75;5051467;28;19916;-69
2022/08/20 07:29:19;;;;;;;;;;;;;;;-142.75;100.00;75971.91;5053070;28;19927;-68
2022/08/20 07:34:30;;;;;;;;;;;;;;;-142.75;100.00;75950.28;5052799;28;20439;-68
2022/08/20 07:36:58;;;;;;;;;;;;;;;-142.75;100.00;75932.56;5052733;28;19970;-68
2022/08/20 07:39:23;;;;;;;;;;;;;;;-142.75;100.00;75918.78;5053026;28;19917;-68
2022/08/20 07:42:01;;;;;;;;;;;;;;;-142.75;100.00;75910.91;5052728;28;19913;-68
2022/08/20 07:44:27;;;;;;;;;;;;;;;-142.75;100.00;75899.09;5052926;28;20022;-68
2022/08/20 07:46:52;;;;;;;;;;;;;;;-142.75;100.00;75906.97;5052698;28;20012;-69
2022/08/20 07:49:17;;;;;;;;;;;;;;;-142.75;100.00;75893.19;5052715;28;19913;-68
2022/08/20 07:51:42;;;;;;;;;;;;;;;-142.75;100.00;75853.84;5051521;28;19913;-69
2022/08/20 07:54:07;;;;;;;;;;;;;;;-142.75;100.00;75836.13;5039294;28;20370;-68
2022/08/20 07:56:33;;;;;;;;;;;;;;;-142.75;100.00;75824.31;5052526;28;19917;-67
2022/08/20 07:58:58;;;;;;;;;;;;;;;-142.75;100.00;75845.97;5044553;28;19932;-67
2022/08/20 08:01:27;;;;;;;;;;;;;;;-142.75;100.00;75824.31;5042184;28;20104;-66
2022/08/20 08:03:52;;;;;;;;;;;;;;;-142.75;96.47;75822.34;5043425;28;19913;-67
2022/08/20 08:06:19;;;;;;;;;;;;;;;-142.75;97.99;75836.13;5052437;28;19923;-67
2022/08/20 08:08:44;;;;;;;;;;;;;;;-142.75;97.89;75822.34;5052261;28;20336;-67
2022/08/20 08:11:09;;;;;;;;;;;;;;;-142.75;100.00;75820.38;5050897;28;19913;-68
2022/08/20 08:13:37;;;;;;;;;;;;;;;-142.75;97.37;75804.63;5052484;28;19978;-66
2022/08/20 08:16:04;;;;;;;;;;;;;;;-142.75;90.04;75761.34;5051787;28;20433;-67
2022/08/20 08:18:36;;;;;;;;;;;;;;;-142.75;82.15;75757.41;5051782;28;19958;-68
2022/08/20 08:21:02;;;;;;;;;;;;;;;-142.75;85.15;75723.94;5048136;28;20023;-68
2022/08/20 08:23:28;;;;;;;;;;;;;;;-142.75;80.93;75704.25;5052175;28;19913;-67
2022/08/20 08:25:53;;;;;;;;;;;;;;;-142.75;76.33;75729.84;5052138;28;19913;-66
2022/08/20 08:28:19;;;;;;;;;;;;;;;-142.75;78.05;75702.28;5051755;28;19920;-68
2022/08/20 08:30:45;;;;;;;;;;;;;;;-142.75;78.70;75700.31;5052128;28;19956;-69
2022/08/20 08:33:27;;;;;;;;;;;;;;;-142.75;76.94;75704.25;5046423;28;19917;-68
2022/08/20 08:35:54;;;;;;;;;;;;;;;-142.75;74.96;75692.44;5036304;28;19924;-71
2022/08/20 08:38:21;;;;;;;;;;;;;;;-142.75;71.66;75641.28;5035148;28;19920;-65
2022/08/20 08:40:48;;;;;;;;;;;;;;;-142.75;70.55;75611.75;5051763;28;19923;-66
2022/08/20 08:43:14;;;;;;;;;;;;;;;-142.75;72.72;75576.34;5051850;28;19919;-68
2022/08/20 08:45:44;;;;;;;;;;;;;;;-142.75;71.91;75570.44;5046707;28;19917;-67
2022/08/20 08:48:15;;;;;;;;;;;;;;;-142.75;73.07;75578.31;5040048;28;19920;-68
2022/08/20 08:50:44;;;;;;;;;;;;;;;-142.75;70.29;75564.53;5036415;28;20006;-68
2022/08/20 08:53:14;;;;;;;;;;;;;;;-142.75;69.16;75540.91;5037333;28;20401;-68
2022/08/20 08:55:40;;;;;;;;;;;;;;;-142.75;74.35;75550.75;5038710;28;19913;-67
2022/08/20 08:58:05;;;;;;;;;;;;;;;-142.75;71.04;75535.00;5037523;28;19920;-68
2022/08/20 09:00:30;;;;;;;;;;;;;;;-142.75;68.92;75527.13;5038007;28;20374;-67
2022/08/20 09:03:04;;;;;;;;;;;;;;;-142.75;67.13;75531.06;5035787;28;19924;-68
2022/08/20 09:05:38;;;;;;;;;;;;;;;-142.75;69.93;75525.16;5049144;28;19919;-67
2022/08/20 09:08:05;;;;;;;;;;;;;;;-142.75;70.81;75533.03;5036253;28;20337;-68
2022/08/20 09:10:31;;;;;;;;;;;;;;;-142.75;68.95;75511.41;5039973;28;20371;-68
2022/08/20 09:12:56;;;;;;;;;;;;;;;-142.75;68.00;75548.78;5036520;28;19921;-66
2022/08/20 09:15:21;;;;;;;;;;;;;;;-142.75;69.75;75645.22;5038104;28;19913;-68
2022/08/20 09:17:47;;;;;;;;;;;;;;;-142.75;75.12;75672.78;5050452;28;19924;-67
2022/08/20 09:20:12;;;;;;;;;;;;;;;-142.75;75.27;75718.03;5040001;28;19923;-68
2022/08/20 09:22:37;;;;;;;;;;;;;;;-142.75;76.79;75733.78;5037743;28;19914;-68
2022/08/20 09:25:03;;;;;;;;;;;;;;;-142.75;79.60;75708.19;5049201;28;20004;-68
2022/08/20 09:27:30;;;;;;;;;;;;;;;-142.75;69.59;75645.22;5040054;28;19913;-67
2022/08/20 09:29:55;;;;;;;;;;;;;;;-142.75;67.92;75570.44;5041476;28;19967;-66
2022/08/20 09:32:21;;;;;;;;;;;;;;;-142.75;61.32;75505.50;5042000;28;19956;-69
2022/08/20 09:34:50;;;;;;;;;;;;;;;-142.75;59.78;75570.44;5040072;28;20345;-69
2022/08/20 09:37:16;;;;;;;;;;;;;;;-142.75;60.85;75550.75;5042560;28;19913;-68
2022/08/20 09:39:41;;;;;;;;;;;;;;;-142.75;61.09;75466.13;5045167;28;19918;-69
2022/08/20 09:42:15;;;;;;;;;;;;;;;-142.75;61.49;75422.84;5043319;28;20549;-68
2022/08/20 09:44:40;;;;;;;;;;;;;;;-142.75;63.14;75450.38;5041594;28;19913;-67
2022/08/20 09:47:06;;;;;;;;;;;;;;;-142.75;67.04;75487.78;5054900;28;19917;-68
2022/08/20 09:49:31;;;;;;;;;;;;;;;-142.75;69.05;75515.31;5055116;28;20278;-67
2022/08/20 09:51:58;;;;;;;;;;;;;;;-142.75;71.10;75548.78;5055033;28;19913;-68
2022/08/20 09:54:28;;;;;;;;;;;;;;;-142.75;69.14;75560.59;5050135;28;19913;-66
2022/08/20 09:56:54;;;;;;;;;;;;;;;-142.75;71.29;75574.38;5044095;28;19944;-66
2022/08/20 09:59:19;;;;;;;;;;;;;;;-142.75;68.79;75509.44;5049614;28;20379;-67
2022/08/20 10:01:44;;;;;;;;;;;;;;;-142.75;67.66;75546.81;5053135;28;19963;-66
2022/08/20 10:04:09;;;;;;;;;;;;;;;-142.75;68.85;75546.81;5043967;28;19917;-66
2022/08/20 10:06:38;;;;;;;;;;;;;;;-142.75;66.70;75601.91;5037018;28;19921;-66
2022/08/20 10:09:03;;;;;;;;;;;;;;;-142.75;67.91;75627.50;5039551;28;20014;-67
2022/08/20 10:11:28;;;;;;;;;;;;;;;-142.75;70.24;75659.00;5040082;28;19917;-66
2022/08/20 10:13:53;;;;;;;;;;;;;;;-142.75;71.13;75692.44;5041918;28;19940;-68
2022/08/20 10:16:19;;;;;;;;;;;;;;;-142.75;71.47;75721.97;5041459;28;20413;-67
2022/08/20 10:18:44;;;;;;;;;;;;;;;-142.75;78.79;75743.63;5041926;28;20003;-66
2022/08/20 10:21:10;;;;;;;;;;;;;;;-142.75;80.08;75775.09;5037918;28;19974;-66
2022/08/20 10:23:35;;;;;;;;;;;;;;;-142.75;79.05;75763.28;5041488;28;20016;-65
2022/08/20 10:26:00;;;;;;;;;;;;;;;-142.75;76.55;75779.03;5054731;28;19917;-67
2022/08/20 10:28:25;;;;;;;;;;;;;;;-142.75;70.65;75802.66;5042217;28;20371;-67
2022/08/20 10:30:51;;;;;;;;;;;;;;;-142.75;73.60;75828.25;5039330;28;20398;-66
2022/08/20 10:33:16;;;;;;;;;;;;;;;-142.75;79.26;75842.03;5040219;28;19921;-64
2022/08/20 10:35:41;;;;;;;;;;;;;;;-142.75;79.59;75836.13;5041181;28;19920;-64
2022/08/20 10:38:06;;;;;;;;;;;;;;;-142.75;81.65;75844.00;5041191;28;20000;-66
2022/08/20 10:40:31;;;;;;;;;;;;;;;-142.75;78.44;75822.34;5040309;28;19923;-66
2022/08/20 10:42:57;;;;;;;;;;;;;;;-142.75;81.78;75828.25;5037918;28;19914;-66
2022/08/20 10:45:24;;;;;;;;;;;;;;;-142.75;76.94;75771.16;5052671;28;20297;-66
2022/08/20 10:47:49;;;;;;;;;;;;;;;-142.75;77.09;75708.19;5039078;28;19917;-66
2022/08/20 10:50:15;;;;;;;;;;;;;;;-142.75;72.10;75635.38;5044052;28;19912;-66
2022/08/20 10:52:40;;;;;;;;;;;;;;;-142.75;72.85;75525.16;5037781;28;19920;-66
2022/08/20 10:55:06;;;;;;;;;;;;;;;-142.75;68.14;75460.22;5039158;28;19913;-67
2022/08/20 10:57:35;;;;;;;;;;;;;;;-142.75;66.11;75414.97;5049406;28;19913;-67
2022/08/20 11:00:00;;;;;;;;;;;;;;;-142.75;62.51;75428.75;5040830;28;20367;-67
2022/08/20 11:02:26;;;;;;;;;;;;;;;-142.75;66.38;75373.63;5046109;28;19951;-67
2022/08/20 11:04:53;;;;;;;;;;;;;;;-142.75;63.21;75334.28;5053392;28;19921;-66
2022/08/20 11:07:29;;;;;;;;;;;;;;;-142.75;62.27;75414.97;5042378;28;19920;-67
2022/08/20 11:09:55;;;;;;;;;;;;;;;-142.75;63.24;75517.28;5047724;28;20588;-67
2022/08/20 11:12:21;;;;;;;;;;;;;;;-142.75;69.82;75603.88;5043928;28;19917;-66
2022/08/20 11:14:47;;;;;;;;;;;;;;;-142.75;66.93;75633.41;5051850;28;19928;-67
2022/08/20 11:17:17;;;;;;;;;;;;;;;-142.75;66.02;75617.66;5051830;28;20301;-66
2022/08/20 11:19:43;;;;;;;;;;;;;;;-142.75;69.62;75635.38;5047753;28;20298;-67
2022/08/20 11:22:08;;;;;;;;;;;;;;;-142.75;69.69;75645.22;5052930;28;19912;-67
2022/08/20 11:24:34;;;;;;;;;;;;;;;-142.75;71.60;75657.03;5053962;28;19912;-68
2022/08/20 11:26:59;;;;;;;;;;;;;;;-142.75;68.66;75664.91;5052264;28;20343;-68
2022/08/20 11:29:24;;;;;;;;;;;;;;;-142.75;73.83;75653.09;5052571;28;20015;-68
2022/08/20 11:31:50;;;;;;;;;;;;;;;-142.75;72.81;75657.03;5053618;28;19923;-68
2022/08/20 11:34:15;;;;;;;;;;;;;;;-142.75;67.65;75653.09;5053756;28;19936;-67
2022/08/20 11:36:41;;;;;;;;;;;;;;;-142.75;71.31;75692.44;5053463;28;19967;-67
2022/08/20 11:39:06;;;;;;;;;;;;;;;-142.75;69.72;75721.97;5053609;28;19913;-68
2022/08/20 11:41:31;;;;;;;;;;;;;;;-142.75;69.88;75700.31;5053382;28;19917;-68
2022/08/20 11:43:56;;;;;;;;;;;;;;;-142.75;74.83;75649.16;5053551;28;19913;-68
2022/08/20 11:46:21;;;;;;;;;;;;;;;-142.75;68.08;75544.84;5053495;28;19913;-68
2022/08/20 11:48:46;;;;;;;;;;;;;;;-142.75;67.96;75525.16;5052989;28;19917;-68
2022/08/20 11:51:12;;;;;;;;;;;;;;;-142.75;69.25;75495.66;5052442;28;19913;-68
2022/08/20 11:53:37;;;;;;;;;;;;;;;-142.75;69.17;75511.41;5053327;28;19913;-67
2022/08/20 11:56:02;;;;;;;;;;;;;;;-142.75;68.44;75475.97;5051521;28;20306;-67
2022/08/20 11:58:27;;;;;;;;;;;;;;;-142.75;69.86;75509.44;5052389;28;19913;-67
2022/08/20 12:00:53;;;;;;;;;;;;;;;-142.75;69.04;75503.53;5051974;28;20305;-68
2022/08/20 12:03:18;;;;;;;;;;;;;;;-142.75;69.09;75546.81;5052807;28;20394;-67
2022/08/20 12:05:44;;;;;;;;;;;;;;;-142.75;71.16;75625.53;5052461;28;19919;-68
2022/08/20 12:08:10;;;;;;;;;;;;;;;-142.75;77.31;75668.84;5052363;28;19935;-67
2022/08/20 12:10:36;;;;;;;;;;;;;;;-142.75;81.05;75702.28;5051456;28;20011;-65
2022/08/20 12:13:02;;;;;;;;;;;;;;;-142.75;87.60;75723.94;5052828;28;19952;-67
2022/08/20 12:15:27;;;;;;;;;;;;;;;-142.75;90.37;75765.25;5052892;28;20395;-67
2022/08/20 12:17:53;;;;;;;;;;;;;;;-142.75;90.53;75727.88;5052613;28;19919;-68
2022/08/20 12:20:18;;;;;;;;;;;;;;;-142.75;86.80;75637.34;5052821;28;20341;-68
2022/08/20 12:22:43;;;;;;;;;;;;;;;-142.75;81.93;75540.91;5051527;28;19919;-68
2022/08/20 12:25:09;;;;;;;;;;;;;;;-142.75;77.95;75521.22;5052496;28;19913;-68
2022/08/20 12:27:37;;;;;;;;;;;;;;;-142.75;77.21;75552.72;5052412;28;20016;-68